Station Historical Data
Daily Summary for August 27, 2017 Units:  Metric    English   Both
« Previous Day
Next Day »
Daily Weekly Monthly Yearly Custom
  High: Low: Average:
Temperature: 24.9 °C 9.9 °C 17.6 °C
Dew Point: 13.8 °C 8.1 °C 11 °C
Humidity: 89% 45% 67%
Wind Speed: 22.5km/h 0km/h 4.2km/h
Wind Gust: 29km/h - -
Wind- - East
Pressure: 1025.6 hPa 1021.2 hPa -
Precipitation: 0 mm    
Historical Graphs
 
 
Tabular Data for August 27, 2017
Time Temperature Dew Point Pressure Wind Wind Speed Wind Gust Humidity Rainfall Rate (Hourly)
00:04 13.8 °C 10.2 °C 1025.6 hPa Calm     79% 0 mm
00:09 13.8 °C 10.2 °C 1025.6 hPa Calm     79% 0 mm
00:14 13.7 °C 10.2 °C 1025.6 hPa Calm     79% 0 mm
00:19 13.7 °C 10.1 °C 1025.6 hPa Calm     79% 0 mm
00:24 13.6 °C 10.1 °C 1025.6 hPa Calm     79% 0 mm
00:29 13.6 °C 10 °C 1025.6 hPa Calm   3.2 km/h 79% 0 mm
00:34 13.6 °C 10 °C 1025.6 hPa Calm   3.2 km/h 79% 0 mm
00:39 13.5 °C 10.1 °C 1025.6 hPa Calm   3.2 km/h 80% 0 mm
00:44 13.4 °C 10 °C 1025.6 hPa Calm     80% 0 mm
00:49 13.3 °C 9.9 °C 1025.6 hPa Calm     80% 0 mm
00:54 13.2 °C 9.8 °C 1025.6 hPa Calm     80% 0 mm
00:59 13.1 °C 9.9 °C 1025.6 hPa Calm     81% 0 mm
01:05 13 °C 9.8 °C 1025.6 hPa Calm     81% 0 mm
01:10 12.9 °C 9.9 °C 1025.6 hPa Calm     82% 0 mm
01:15 12.9 °C 9.9 °C 1025.6 hPa Calm     82% 0 mm
01:20 12.9 °C 9.9 °C 1025.6 hPa Calm     82% 0 mm
01:25 12.8 °C 9.8 °C 1025.6 hPa Calm   1.6 km/h 82% 0 mm
01:30 12.8 °C 9.8 °C 1025.6 hPa Calm   3.2 km/h 82% 0 mm
01:35 12.8 °C 9.8 °C 1025.6 hPa Calm   3.2 km/h 82% 0 mm
01:40 12.8 °C 9.8 °C 1025.6 hPa Calm     82% 0 mm
01:45 12.7 °C 9.7 °C 1025.6 hPa Calm     82% 0 mm
01:50 12.6 °C 9.6 °C 1025.6 hPa Calm     82% 0 mm
01:55 12.6 °C 9.6 °C 1025.6 hPa Calm     82% 0 mm
02:00 12.5 °C 9.5 °C 1025.6 hPa Calm     82% 0 mm
02:05 12.4 °C 9.4 °C 1025.3 hPa Calm   3.2 km/h 82% 0 mm
02:10 12.4 °C 9.6 °C 1025.3 hPa Calm     83% 0 mm
02:15 12.4 °C 9.4 °C 1025.3 hPa Calm     82% 0 mm
02:20 12.3 °C 9.5 °C 1025.3 hPa Calm     83% 0 mm
02:25 12.3 °C 9.5 °C 1025.3 hPa Calm     83% 0 mm
02:30 12.3 °C 9.3 °C 1025.3 hPa Calm   1.6 km/h 82% 0 mm
02:35 12.3 °C 9.3 °C 1025.3 hPa Calm   1.6 km/h 82% 0 mm
02:40 12.1 °C 9.1 °C 1025.3 hPa Calm   1.6 km/h 82% 0 mm
02:45 11.9 °C 9.2 °C 1025.3 hPa Calm     83% 0 mm
02:50 11.9 °C 9.1 °C 1025.3 hPa Calm     83% 0 mm
02:55 11.8 °C 9.1 °C 1025.3 hPa Calm     83% 0 mm
03:00 11.8 °C 9.2 °C 1025.3 hPa Calm     84% 0 mm
03:05 11.8 °C 9.2 °C 1025.3 hPa Calm     84% 0 mm
03:10 11.7 °C 9.1 °C 1025.3 hPa Calm     84% 0 mm
03:15 11.7 °C 9.1 °C 1025.3 hPa Calm     84% 0 mm
03:20 11.6 °C 9 °C 1025.3 hPa Calm     84% 0 mm
03:25 11.6 °C 8.9 °C 1025.3 hPa Calm     84% 0 mm
03:30 11.6 °C 9.1 °C 1025.3 hPa Calm     85% 0 mm
03:35 11.4 °C 9 °C 1025.3 hPa Calm     85% 0 mm
03:40 11.4 °C 8.9 °C 1025.3 hPa Calm     85% 0 mm
03:45 11.4 °C 8.9 °C 1025.3 hPa Calm     85% 0 mm
03:50 11.3 °C 8.8 °C 1025.3 hPa Calm     85% 0 mm
03:55 11.2 °C 8.9 °C 1025.3 hPa Calm     86% 0 mm
04:00 11.1 °C 8.8 °C 1024.9 hPa Calm     86% 0 mm
04:05 11 °C 8.7 °C 1024.9 hPa Calm     86% 0 mm
04:10 11 °C 8.7 °C 1024.9 hPa Calm     86% 0 mm
04:15 11 °C 8.7 °C 1024.9 hPa Calm     86% 0 mm
04:20 11 °C 8.7 °C 1024.9 hPa Calm     86% 0 mm
04:25 11.1 °C 8.8 °C 1024.9 hPa Calm     86% 0 mm
04:30 11 °C 8.9 °C 1024.9 hPa Calm     87% 0 mm
04:35 11 °C 8.9 °C 1024.9 hPa Calm     87% 0 mm
04:40 10.9 °C 8.8 °C 1024.9 hPa Calm     87% 0 mm
04:45 10.8 °C 8.6 °C 1024.9 hPa Calm     86% 0 mm
04:50 10.6 °C 8.6 °C 1024.9 hPa Calm     87% 0 mm
04:55 10.4 °C 8.4 °C 1025.3 hPa Calm     87% 0 mm
05:00 10.3 °C 8.4 °C 1024.9 hPa Calm     88% 0 mm
05:05 10.3 °C 8.4 °C 1024.9 hPa Calm     88% 0 mm
05:10 10.4 °C 8.5 °C 1024.9 hPa Calm     88% 0 mm
05:15 10.4 °C 8.5 °C 1024.9 hPa Calm     88% 0 mm
05:20 10.3 °C 8.4 °C 1024.9 hPa Calm     88% 0 mm
05:25 10.3 °C 8.4 °C 1024.9 hPa Calm     88% 0 mm
05:30 10.2 °C 8.3 °C 1024.9 hPa Calm     88% 0 mm
05:35 10.2 °C 8.3 °C 1024.9 hPa Calm     88% 0 mm
05:40 10.1 °C 8.3 °C 1024.9 hPa Calm     89% 0 mm
05:44 10 °C 8.1 °C 1024.9 hPa Calm     88% 0 mm
05:49 10 °C 8.3 °C 1024.9 hPa Calm     89% 0 mm
05:55 9.9 °C 8.2 °C 1024.9 hPa Calm     89% 0 mm
06:00 9.9 °C 8.2 °C 1024.9 hPa Calm     89% 0 mm
06:05 9.9 °C 8.2 °C 1025.3 hPa Calm     89% 0 mm
06:10 10.1 °C 8.3 °C 1025.3 hPa Calm     89% 0 mm
06:15 10.2 °C 8.5 °C 1025.3 hPa Calm     89% 0 mm
06:20 10.3 °C 8.6 °C 1025.3 hPa Calm     89% 0 mm
06:24 10.3 °C 8.6 °C 1025.3 hPa Calm   3.2 km/h 89% 0 mm
06:29 10.4 °C 8.7 °C 1025.3 hPa Calm     89% 0 mm
06:34 10.4 °C 8.7 °C 1025.3 hPa Calm     89% 0 mm
06:40 10.4 °C 8.6 °C 1025.3 hPa Calm   3.2 km/h 88% 0 mm
06:45 10.4 °C 8.6 °C 1025.3 hPa Calm   1.6 km/h 88% 0 mm
06:50 10.5 °C 8.6 °C 1025.3 hPa Calm     88% 0 mm
06:54 10.6 °C 8.7 °C 1025.3 hPa Calm     88% 0 mm
07:00 10.5 °C 8.6 °C 1025.3 hPa Calm     88% 0 mm
07:05 10.6 °C 8.7 °C 1025.3 hPa Calm     88% 0 mm
07:10 10.7 °C 8.8 °C 1025.3 hPa Calm     88% 0 mm
07:15 10.7 °C 8.7 °C 1025.3 hPa Calm     87% 0 mm
07:20 10.8 °C 8.8 °C 1025.3 hPa Calm   8 km/h 87% 0 mm
07:24 11 °C 8.9 °C 1025.3 hPa East 1.6 km/h 8 km/h 87% 0 mm
07:30 11.2 °C 8.9 °C 1025.3 hPa East 1.6 km/h 8 km/h 86% 0 mm
07:35 11.3 °C 9 °C 1025.3 hPa ENE 1.6 km/h 9.7 km/h 86% 0 mm
07:40 11.4 °C 9.2 °C 1025.3 hPa ENE 1.6 km/h 9.7 km/h 86% 0 mm
07:44 11.7 °C 9.2 °C 1025.3 hPa Calm   3.2 km/h 85% 0 mm
07:50 11.9 °C 9.3 °C 1025.3 hPa ENE 3.2 km/h 8 km/h 84% 0 mm
07:55 12.2 °C 9.6 °C 1025.3 hPa East 3.2 km/h 4.8 km/h 84% 0 mm
07:59 12.4 °C 9.6 °C 1025.3 hPa East 3.2 km/h 8 km/h 83% 0 mm
08:04 12.8 °C 9.8 °C 1025.3 hPa East 3.2 km/h 8 km/h 82% 0 mm
08:10 13.2 °C 9.8 °C 1025.3 hPa East 3.2 km/h 8 km/h 80% 0 mm
08:15 13.5 °C 9.9 °C 1025.3 hPa East 4.8 km/h 8 km/h 79% 0 mm
08:20 13.8 °C 10.1 °C 1025.3 hPa Calm   6.4 km/h 78% 0 mm
08:25 14.2 °C 10.2 °C 1025.3 hPa East 3.2 km/h 8 km/h 77% 0 mm
08:29 14.6 °C 10.4 °C 1025.3 hPa ENE 3.2 km/h 8 km/h 76% 0 mm
08:35 14.8 °C 10.2 °C 1024.9 hPa East 3.2 km/h 11.3 km/h 74% 0 mm
08:40 15.1 °C 10.5 °C 1024.9 hPa East 4.8 km/h 11.3 km/h 74% 0 mm
08:45 15.6 °C 10.6 °C 1025.3 hPa East 3.2 km/h 8 km/h 72% 0 mm
08:50 15.8 °C 10.6 °C 1025.3 hPa East 3.2 km/h 11.3 km/h 71% 0 mm
08:55 15.9 °C 10.9 °C 1025.3 hPa East 3.2 km/h 11.3 km/h 72% 0 mm
08:59 16.2 °C 10.9 °C 1025.3 hPa East 4.8 km/h 9.7 km/h 71% 0 mm
09:05 16.4 °C 10.9 °C 1024.9 hPa NE 4.8 km/h 9.7 km/h 70% 0 mm
09:09 16.7 °C 11.2 °C 1024.9 hPa East 1.6 km/h 9.7 km/h 70% 0 mm
09:15 16.9 °C 11.2 °C 1024.9 hPa ENE 3.2 km/h 9.7 km/h 69% 0 mm
09:20 17.1 °C 11.4 °C 1024.9 hPa Calm   8 km/h 69% 0 mm
09:25 17.6 °C 11.8 °C 1024.9 hPa ENE 4.8 km/h 6.4 km/h 69% 0 mm
09:30 17.8 °C 11.8 °C 1024.9 hPa East 3.2 km/h 8 km/h 68% 0 mm
09:35 17.9 °C 11.9 °C 1024.9 hPa ESE 3.2 km/h 8 km/h 68% 0 mm
09:40 18.4 °C 12.4 °C 1024.9 hPa ESE 1.6 km/h 8 km/h 68% 0 mm
09:45 18.6 °C 11.9 °C 1024.9 hPa East 1.6 km/h 11.3 km/h 65% 0 mm
09:50 18.8 °C 12.5 °C 1024.9 hPa East 3.2 km/h 11.3 km/h 67% 0 mm
09:55 19.1 °C 12.1 °C 1024.9 hPa ESE 4.8 km/h 11.3 km/h 64% 0 mm
09:59 19.3 °C 12.1 °C 1024.9 hPa ESE 1.6 km/h 9.7 km/h 63% 0 mm
10:04 19.7 °C 12.5 °C 1024.9 hPa SSE 9.7 km/h 9.7 km/h 63% 0 mm
10:10 20.1 °C 12.6 °C 1024.9 hPa ESE 3.2 km/h 12.9 km/h 62% 0 mm
10:15 20.2 °C 12.2 °C 1024.9 hPa SSE 6.4 km/h 16.1 km/h 60% 0 mm
10:20 20.5 °C 12.4 °C 1024.9 hPa ESE 3.2 km/h 9.7 km/h 60% 0 mm
10:24 20.9 °C 12.3 °C 1024.9 hPa East 4.8 km/h 12.9 km/h 58% 0 mm
10:30 20.8 °C 12.2 °C 1024.9 hPa SSE 8 km/h 12.9 km/h 58% 0 mm
10:34 21.1 °C 12.3 °C 1024.9 hPa SE 4.8 km/h 12.9 km/h 57% 0 mm
10:39 21 °C 12.4 °C 1024.6 hPa ESE 4.8 km/h 12.9 km/h 58% 0 mm
10:44 21.2 °C 13.1 °C 1024.6 hPa ESE 4.8 km/h 12.9 km/h 60% 0 mm
10:50 21.6 °C 13.8 °C 1024.6 hPa ESE 3.2 km/h 9.7 km/h 61% 0 mm
10:55 22 °C 13.1 °C 1024.6 hPa ESE 3.2 km/h 8 km/h 57% 0 mm
11:00 22 °C 13.1 °C 1024.6 hPa East 8 km/h 11.3 km/h 57% 0 mm
11:04 21.8 °C 12.9 °C 1024.6 hPa ESE 4.8 km/h 11.3 km/h 57% 0 mm
11:10 21.9 °C 12.4 °C 1024.6 hPa East 6.4 km/h 17.7 km/h 55% 0 mm
11:14 22.2 °C 12.2 °C 1024.6 hPa ESE 6.4 km/h 9.7 km/h 53% 0 mm
11:19 22 °C 12.3 °C 1024.6 hPa SSE 6.4 km/h 11.3 km/h 54% 0 mm
11:24 22.3 °C 13.1 °C 1024.6 hPa SE 9.7 km/h 11.3 km/h 56% 0 mm
11:29 22.4 °C 12.1 °C 1024.6 hPa SSE 6.4 km/h 12.9 km/h 52% 0 mm
11:34 22.5 °C 12.2 °C 1024.6 hPa SE 6.4 km/h 14.5 km/h 52% 0 mm
11:40 22.7 °C 12.9 °C 1024.3 hPa SE 6.4 km/h 20.9 km/h 54% 0 mm
11:44 22.7 °C 12.1 °C 1024.3 hPa ESE 6.4 km/h 20.9 km/h 51% 0 mm
11:50 22.9 °C 12.2 °C 1024.3 hPa ESE 6.4 km/h 12.9 km/h 51% 0 mm
11:55 23.1 °C 12.7 °C 1024.3 hPa SE 6.4 km/h 14.5 km/h 52% 0 mm
12:00 23.1 °C 11.8 °C 1024.3 hPa South 8 km/h 16.1 km/h 49% 0 mm
12:05 23.1 °C 12.1 °C 1024.3 hPa ESE 1.6 km/h 12.9 km/h 50% 0 mm
12:09 23.6 °C 11.9 °C 1024.3 hPa ESE 4.8 km/h 14.5 km/h 48% 0 mm
12:14 23.2 °C 10.9 °C 1024.3 hPa East 6.4 km/h 14.5 km/h 46% 0 mm
12:19 23.6 °C 11.9 °C 1024.3 hPa SE 6.4 km/h 9.7 km/h 48% 0 mm
12:24 23.6 °C 12.3 °C 1024.3 hPa East 9.7 km/h 11.3 km/h 49% 0 mm
12:30 23.5 °C 11.2 °C 1023.9 hPa SE 4.8 km/h 14.5 km/h 46% 0 mm
12:34 23.8 °C 12.4 °C 1024.3 hPa SE 1.6 km/h 11.3 km/h 49% 0 mm
12:39 23.8 °C 11.8 °C 1023.9 hPa ESE 4.8 km/h 12.9 km/h 47% 0 mm
12:44 23.7 °C 12.6 °C 1023.9 hPa SE 4.8 km/h 12.9 km/h 50% 0 mm
12:49 24.2 °C 12.8 °C 1023.9 hPa SE 4.8 km/h 14.5 km/h 49% 0 mm
12:55 23.9 °C 11.9 °C 1023.9 hPa East 4.8 km/h 14.5 km/h 47% 0 mm
12:59 23.4 °C 11.5 °C 1023.9 hPa East 4.8 km/h 14.5 km/h 47% 0 mm
13:04 23.8 °C 12.1 °C 1023.9 hPa South 3.2 km/h 11.3 km/h 48% 0 mm
13:09 24.2 °C 12.2 °C 1023.9 hPa ESE 4.8 km/h 12.9 km/h 47% 0 mm
13:15 23.7 °C 11.1 °C 1023.9 hPa ESE 6.4 km/h 12.9 km/h 45% 0 mm
13:20 23.3 °C 11.9 °C 1023.6 hPa ESE 4.8 km/h 12.9 km/h 49% 0 mm
13:24 24.1 °C 11.8 °C 1023.6 hPa SSE 4.8 km/h 11.3 km/h 46% 0 mm
13:30 24 °C 12.3 °C 1023.6 hPa South 4.8 km/h 11.3 km/h 48% 0 mm
13:34 23.8 °C 11.8 °C 1023.6 hPa ENE 8 km/h 12.9 km/h 47% 0 mm
13:39 24 °C 12.6 °C 1023.2 hPa ENE 4.8 km/h 12.9 km/h 49% 0 mm
13:44 24 °C 12 °C 1023.2 hPa ESE 4.8 km/h 12.9 km/h 47% 0 mm
13:49 23.8 °C 11.8 °C 1023.6 hPa East 3.2 km/h 11.3 km/h 47% 0 mm
13:54 23.7 °C 12 °C 1023.2 hPa NNE 3.2 km/h 12.9 km/h 48% 0 mm
13:59 23.7 °C 12.7 °C 1023.2 hPa ESE 4.8 km/h 11.3 km/h 50% 0 mm
14:04 23.9 °C 12.9 °C 1023.2 hPa East 8 km/h 14.5 km/h 50% 0 mm
14:10 23.7 °C 11.7 °C 1023.2 hPa NE 6.4 km/h 12.9 km/h 47% 0 mm
14:14 23.6 °C 11.9 °C 1023.2 hPa ENE 6.4 km/h 16.1 km/h 48% 0 mm
14:19 24.1 °C 12.1 °C 1023.2 hPa East 6.4 km/h 16.1 km/h 47% 0 mm
14:24 24.2 °C 11.8 °C 1023.2 hPa SSE 6.4 km/h 14.5 km/h 46% 0 mm
14:29 24.2 °C 11.6 °C 1022.9 hPa SSE 6.4 km/h 12.9 km/h 45% 0 mm
14:35 24.1 °C 13.3 °C 1022.9 hPa East 6.4 km/h 17.7 km/h 51% 0 mm
14:40 23.8 °C 12.8 °C 1022.9 hPa NE 4.8 km/h 19.3 km/h 50% 0 mm
14:44 23.9 °C 12.9 °C 1022.9 hPa NE 9.7 km/h 12.9 km/h 50% 0 mm
14:49 24.4 °C 12.3 °C 1022.9 hPa SSE 8 km/h 11.3 km/h 47% 0 mm
14:54 24.6 °C 12.2 °C 1022.9 hPa Calm   8 km/h 46% 0 mm
14:59 24.6 °C 13.5 °C 1022.9 hPa Calm   11.3 km/h 50% 0 mm
15:04 24.6 °C 12.9 °C 1022.9 hPa South 3.2 km/h 11.3 km/h 48% 0 mm
15:09 24.7 °C 12.3 °C 1022.6 hPa South 1.6 km/h 6.4 km/h 46% 0 mm
15:14 24.9 °C 12.8 °C 1022.6 hPa SE 4.8 km/h 14.5 km/h 47% 0 mm
15:19 24.6 °C 12.8 °C 1022.6 hPa East 8 km/h 17.7 km/h 48% 0 mm
15:24 24.2 °C 12.8 °C 1022.6 hPa ENE 9.7 km/h 17.7 km/h 49% 0 mm
15:29 24 °C 12.9 °C 1022.6 hPa ESE 8 km/h 16.1 km/h 50% 0 mm
15:35 24.1 °C 12.4 °C 1022.2 hPa ENE 11.3 km/h 17.7 km/h 48% 0 mm
15:39 24.1 °C 13.3 °C 1022.2 hPa ENE 12.9 km/h 14.5 km/h 51% 0 mm
15:44 24.3 °C 12.9 °C 1022.2 hPa ENE 6.4 km/h 14.5 km/h 49% 0 mm
15:49 24.2 °C 12.5 °C 1022.2 hPa ENE 8 km/h 16.1 km/h 48% 0 mm
15:55 24.7 °C 12.7 °C 1022.2 hPa NE 8 km/h 20.9 km/h 47% 0 mm
16:00 24.6 °C 12.6 °C 1022.2 hPa NE 8 km/h 20.9 km/h 47% 0 mm
16:04 24.7 °C 12.6 °C 1021.9 hPa East 8 km/h 20.9 km/h 47% 0 mm
16:09 24.8 °C 12.7 °C 1021.9 hPa NE 11.3 km/h 17.7 km/h 47% 0 mm
16:14 24.6 °C 12.8 °C 1021.9 hPa SE 4.8 km/h 20.9 km/h 48% 0 mm
16:19 24.4 °C 12.7 °C 1021.9 hPa North 4.8 km/h 19.3 km/h 48% 0 mm
16:24 24.6 °C 13.4 °C 1021.9 hPa NE 19.3 km/h 20.9 km/h 50% 0 mm
16:29 24.4 °C 12.7 °C 1021.9 hPa ENE 22.5 km/h 22.5 km/h 48% 0 mm
16:34 24 °C 12.3 °C 1021.9 hPa NE 6.4 km/h 24.1 km/h 48% 0 mm
16:39 23.7 °C 12.6 °C 1021.6 hPa NNE 9.7 km/h 17.7 km/h 50% 0 mm
16:44 23.5 °C 12.2 °C 1021.9 hPa ENE 9.7 km/h 19.3 km/h 49% 0 mm
16:49 23.3 °C 12.3 °C 1021.6 hPa ENE 11.3 km/h 22.5 km/h 50% 0 mm
16:54 23.6 °C 12.3 °C 1021.6 hPa NE 11.3 km/h 22.5 km/h 49% 0 mm
16:59 23.6 °C 12.2 °C 1021.6 hPa NE 11.3 km/h 22.5 km/h 49% 0 mm
17:04 23.7 °C 12.3 °C 1021.6 hPa ENE 11.3 km/h 24.1 km/h 49% 0 mm
17:10 23.7 °C 12.3 °C 1021.6 hPa ENE 8 km/h 20.9 km/h 49% 0 mm
17:14 23.7 °C 12.3 °C 1021.6 hPa ENE 9.7 km/h 20.9 km/h 49% 0 mm
17:19 23.6 °C 12.3 °C 1021.6 hPa East 4.8 km/h 17.7 km/h 49% 0 mm
17:24 23.4 °C 12.1 °C 1021.6 hPa ENE 8 km/h 22.5 km/h 49% 0 mm
17:29 23.2 °C 11.8 °C 1021.2 hPa ENE 14.5 km/h 20.9 km/h 49% 0 mm
17:34 23.1 °C 12.1 °C 1021.2 hPa NE 9.7 km/h 22.5 km/h 50% 0 mm
17:39 22.8 °C 11.6 °C 1021.2 hPa ENE 6.4 km/h 29 km/h 49% 0 mm
17:44 22.7 °C 11.7 °C 1021.6 hPa NE 11.3 km/h 29 km/h 50% 0 mm
17:49 22.7 °C 11.1 °C 1021.6 hPa ENE 11.3 km/h 20.9 km/h 48% 0 mm
17:54 22.6 °C 11.1 °C 1021.6 hPa NE 12.9 km/h 24.1 km/h 48% 0 mm
17:59 22.4 °C 10.9 °C 1021.6 hPa NE 14.5 km/h 27.4 km/h 48% 0 mm
18:04 22.4 °C 10.8 °C 1021.6 hPa NE 14.5 km/h 27.4 km/h 48% 0 mm
18:09 22.3 °C 10.8 °C 1021.6 hPa East 9.7 km/h 20.9 km/h 48% 0 mm
18:14 22.3 °C 11.1 °C 1021.9 hPa ESE 12.9 km/h 22.5 km/h 49% 0 mm
18:19 22.2 °C 11 °C 1021.9 hPa ENE 11.3 km/h 22.5 km/h 49% 0 mm
18:24 22.2 °C 11 °C 1021.6 hPa ENE 9.7 km/h 20.9 km/h 49% 0 mm
18:29 22.2 °C 10.9 °C 1021.6 hPa ENE 9.7 km/h 20.9 km/h 49% 0 mm
18:35 22.1 °C 10.6 °C 1021.6 hPa ENE 11.3 km/h 25.7 km/h 48% 0 mm
18:39 21.8 °C 10.6 °C 1021.6 hPa ENE 12.9 km/h 25.7 km/h 49% 0 mm
18:44 21.8 °C 10.9 °C 1021.6 hPa East 14.5 km/h 16.1 km/h 50% 0 mm
18:49 21.6 °C 10.7 °C 1021.6 hPa ENE 6.4 km/h 17.7 km/h 50% 0 mm
18:54 21.5 °C 10.6 °C 1021.6 hPa ENE 8 km/h 17.7 km/h 50% 0 mm
18:59 21.4 °C 10.8 °C 1021.6 hPa ENE 8 km/h 14.5 km/h 51% 0 mm
19:04 21.3 °C 10.7 °C 1021.6 hPa East 4.8 km/h 24.1 km/h 51% 0 mm
19:09 21.1 °C 10.8 °C 1021.6 hPa NE 9.7 km/h 17.7 km/h 52% 0 mm
19:14 20.9 °C 10.9 °C 1021.6 hPa ENE 11.3 km/h 20.9 km/h 53% 0 mm
19:19 20.8 °C 11.1 °C 1021.6 hPa ENE 3.2 km/h 16.1 km/h 54% 0 mm
19:24 20.7 °C 11.8 °C 1021.6 hPa ENE 8 km/h 20.9 km/h 57% 0 mm
19:29 20.6 °C 12 °C 1021.6 hPa ENE 9.7 km/h 20.9 km/h 58% 0 mm
19:34 20.4 °C 12.1 °C 1021.6 hPa ENE 9.7 km/h 20.9 km/h 59% 0 mm
19:39 20.2 °C 12.2 °C 1021.6 hPa ENE 9.7 km/h 17.7 km/h 60% 0 mm
19:44 20.1 °C 12.3 °C 1021.6 hPa NE 11.3 km/h 19.3 km/h 61% 0 mm
19:49 19.9 °C 12.4 °C 1021.6 hPa East 12.9 km/h 16.1 km/h 62% 0 mm
19:54 19.7 °C 12.5 °C 1021.6 hPa ENE 9.7 km/h 19.3 km/h 63% 0 mm
19:59 19.6 °C 12.6 °C 1021.9 hPa ENE 8 km/h 19.3 km/h 64% 0 mm
20:04 19.4 °C 12.7 °C 1021.9 hPa ENE 8 km/h 16.1 km/h 65% 0 mm
20:09 19.3 °C 12.6 °C 1021.9 hPa NE 4.8 km/h 16.1 km/h 65% 0 mm
20:14 19.2 °C 12.5 °C 1021.9 hPa NE 3.2 km/h 16.1 km/h 65% 0 mm
20:19 19.1 °C 12.6 °C 1021.9 hPa NE 3.2 km/h 14.5 km/h 66% 0 mm
20:24 18.9 °C 12.6 °C 1022.2 hPa NE 6.4 km/h 11.3 km/h 67% 0 mm
20:29 18.8 °C 12.5 °C 1022.2 hPa NE 6.4 km/h 12.9 km/h 67% 0 mm
20:34 18.7 °C 12.4 °C 1022.2 hPa NE 6.4 km/h 12.9 km/h 67% 0 mm
20:39 18.6 °C 12.6 °C 1022.2 hPa ENE 4.8 km/h 12.9 km/h 68% 0 mm
20:44 18.4 °C 12.4 °C 1022.2 hPa ENE 4.8 km/h 12.9 km/h 68% 0 mm
20:49 18.3 °C 12.3 °C 1022.2 hPa ENE 4.8 km/h 12.9 km/h 68% 0 mm
20:54 18.2 °C 12.4 °C 1022.6 hPa Calm   6.4 km/h 69% 0 mm
20:59 18.1 °C 12.3 °C 1022.2 hPa NE 1.6 km/h 8 km/h 69% 0 mm
21:04 18 °C 12.4 °C 1022.2 hPa ENE 1.6 km/h 14.5 km/h 70% 0 mm
21:09 17.9 °C 12.4 °C 1022.2 hPa NE 1.6 km/h 11.3 km/h 70% 0 mm
21:14 17.8 °C 12.3 °C 1022.2 hPa ENE 1.6 km/h 11.3 km/h 70% 0 mm
21:19 17.8 °C 12.4 °C 1022.2 hPa ENE 1.6 km/h 8 km/h 71% 0 mm
21:24 17.7 °C 12.3 °C 1022.2 hPa ENE 4.8 km/h 11.3 km/h 71% 0 mm
21:29 17.6 °C 12.3 °C 1022.2 hPa ENE 4.8 km/h 20.9 km/h 71% 0 mm
21:34 17.6 °C 12.2 °C 1022.6 hPa East 4.8 km/h 20.9 km/h 71% 0 mm
21:39 17.4 °C 12.3 °C 1022.6 hPa ENE 3.2 km/h 12.9 km/h 72% 0 mm
21:44 17.3 °C 12.4 °C 1022.6 hPa ENE 3.2 km/h 12.9 km/h 73% 0 mm
21:49 17.2 °C 12.3 °C 1022.2 hPa ENE 4.8 km/h 12.9 km/h 73% 0 mm
21:55 17.1 °C 12.4 °C 1022.2 hPa East 6.4 km/h 12.9 km/h 74% 0 mm
22:04 16.9 °C 12.2 °C 1022.2 hPa ENE 6.4 km/h 12.9 km/h 74% 0 mm
22:09 16.8 °C 12.1 °C 1022.2 hPa ENE 6.4 km/h 8 km/h 74% 0 mm
22:14 16.7 °C 12.3 °C 1021.9 hPa ENE 4.8 km/h 11.3 km/h 75% 0 mm
22:19 16.7 °C 12 °C 1021.9 hPa NE 4.8 km/h 14.5 km/h 74% 0 mm
22:24 16.6 °C 11.9 °C 1021.9 hPa NE 3.2 km/h 14.5 km/h 74% 0 mm
22:29 16.6 °C 11.9 °C 1021.9 hPa ENE 3.2 km/h 11.3 km/h 74% 0 mm
22:34 16.6 °C 11.7 °C 1021.9 hPa ENE 4.8 km/h 11.3 km/h 73% 0 mm
22:39 16.6 °C 11.7 °C 1021.9 hPa ENE 4.8 km/h 14.5 km/h 73% 0 mm
22:44 16.6 °C 11.7 °C 1021.9 hPa East 4.8 km/h 14.5 km/h 73% 0 mm
22:49 16.6 °C 11.5 °C 1021.9 hPa East 6.4 km/h 16.1 km/h 72% 0 mm
22:54 16.5 °C 11.4 °C 1022.2 hPa East 6.4 km/h 16.1 km/h 72% 0 mm
22:59 16.4 °C 11.6 °C 1022.2 hPa ENE 4.8 km/h 11.3 km/h 73% 0 mm
23:04 16.3 °C 11.5 °C 1022.2 hPa ENE 6.4 km/h 12.9 km/h 73% 0 mm
23:09 16.2 °C 11.4 °C 1022.2 hPa East 3.2 km/h 12.9 km/h 73% 0 mm
23:14 16.2 °C 11.3 °C 1022.2 hPa East 1.6 km/h 8 km/h 73% 0 mm
23:19 16 °C 11.2 °C 1022.2 hPa East 1.6 km/h 4.8 km/h 73% 0 mm
23:24 15.9 °C 11.1 °C 1022.2 hPa ENE 3.2 km/h 11.3 km/h 73% 0 mm
23:29 15.9 °C 11.3 °C 1022.2 hPa East 4.8 km/h 8 km/h 74% 0 mm
23:34 15.8 °C 11.2 °C 1022.2 hPa East 1.6 km/h 9.7 km/h 74% 0 mm
23:39 15.8 °C 11.2 °C 1022.2 hPa ENE 3.2 km/h 9.7 km/h 74% 0 mm
23:44 15.8 °C 11.2 °C 1022.2 hPa ENE 3.2 km/h 8 km/h 74% 0 mm
23:49 15.7 °C 11.1 °C 1022.6 hPa ENE 1.6 km/h 11.3 km/h 74% 0 mm
23:54 15.6 °C 11 °C 1022.2 hPa East 1.6 km/h 11.3 km/h 74% 0 mm
23:59 15.6 °C 10.9 °C 1022.6 hPa Calm   4.8 km/h 74% 0 mm
Buffalo, New York, USA
Compliments of Weather Underground - 2.5 mb